createdAt,value
2024-05-09T00:00:18.578Z,8.78
2024-05-09T00:01:16.204Z,8.78
2024-05-09T00:02:16.145Z,8.5
2024-05-09T00:03:16.105Z,8.94
2024-05-09T00:04:16.079Z,8.78
2024-05-09T00:05:16.111Z,8.94
2024-05-09T00:06:16.113Z,8.61
2024-05-09T00:07:16.077Z,9.06
2024-05-09T00:09:16.076Z,8.94
2024-05-09T00:10:22.036Z,8.61
2024-05-09T00:12:16.176Z,8.94
2024-05-09T00:14:16.071Z,8.78
2024-05-09T00:15:16.100Z,8.78
2024-05-09T00:16:16.073Z,8.5
2024-05-09T00:17:16.271Z,8.61
2024-05-09T00:19:16.178Z,8.61
2024-05-09T00:20:20.298Z,8.61
2024-05-09T00:21:16.120Z,8.61
2024-05-09T00:22:16.073Z,9.06
2024-05-09T00:23:16.160Z,8.78
2024-05-09T00:24:16.110Z,8.61
2024-05-09T00:25:16.077Z,8.61
2024-05-09T00:26:16.095Z,8.78
2024-05-09T00:27:16.092Z,8.5
2024-05-09T00:28:16.077Z,8.78
2024-05-09T00:29:16.171Z,8.78
2024-05-09T00:30:21.354Z,8.61
2024-05-09T00:31:16.102Z,8.94
2024-05-09T00:32:16.207Z,8.5
2024-05-09T00:34:16.158Z,8.78
2024-05-09T00:35:16.179Z,8.5
2024-05-09T00:36:16.091Z,8.61
2024-05-09T00:37:16.093Z,8.78
2024-05-09T00:38:16.117Z,8.61
2024-05-09T00:40:22.266Z,8.5
2024-05-09T00:41:17.995Z,8.5
2024-05-09T00:42:16.109Z,8.78
2024-05-09T00:43:16.082Z,8.61
2024-05-09T00:44:16.117Z,8.78
2024-05-09T00:45:16.091Z,8.78
2024-05-09T00:46:16.094Z,8.78
2024-05-09T00:47:16.162Z,8.61
2024-05-09T00:48:17.609Z,8.94
2024-05-09T00:50:19.563Z,8.61
2024-05-09T00:52:16.120Z,8.61
2024-05-09T00:53:16.210Z,8.94
2024-05-09T00:54:16.111Z,8.61
2024-05-09T00:55:16.106Z,8.78
2024-05-09T00:57:16.104Z,8.94
2024-05-09T00:58:16.091Z,8.5
2024-05-09T00:59:16.148Z,8.5
2024-05-09T01:00:22.061Z,8.78
2024-05-09T01:01:16.115Z,8.61
2024-05-09T01:02:16.201Z,8.78
2024-05-09T01:03:16.198Z,8.5
2024-05-09T01:04:16.111Z,8.61
2024-05-09T01:06:16.112Z,8.5
2024-05-09T01:07:16.138Z,8.78
2024-05-09T01:08:16.183Z,8.5
2024-05-09T01:09:16.124Z,8.78
2024-05-09T01:11:16.148Z,8.78
2024-05-09T01:12:16.225Z,8.5
2024-05-09T01:13:16.103Z,8.5
2024-05-09T01:14:16.135Z,8.61
2024-05-09T01:15:16.122Z,8.5
2024-05-09T01:16:16.126Z,8.61
2024-05-09T01:17:16.224Z,8.61
2024-05-09T01:18:16.274Z,8.61
2024-05-09T01:19:16.451Z,8.61
2024-05-09T01:20:19.901Z,8.61
2024-05-09T01:21:16.218Z,8.39
2024-05-09T01:22:16.124Z,8.5
2024-05-09T01:23:16.531Z,8.5
2024-05-09T01:24:16.122Z,8.5
2024-05-09T01:25:16.190Z,8.28
2024-05-09T01:27:16.127Z,8.61
2024-05-09T01:28:16.358Z,8.5
2024-05-09T01:29:16.146Z,8.61
2024-05-09T01:30:17.399Z,8.78
2024-05-09T01:31:16.136Z,8.78
2024-05-09T01:32:16.173Z,8.5
2024-05-09T01:33:16.249Z,8.78
2024-05-09T01:34:16.159Z,8.5
2024-05-09T01:35:16.299Z,8.78
2024-05-09T01:36:16.123Z,8.61
2024-05-09T01:37:16.150Z,8.61
2024-05-09T01:38:16.141Z,8.5
2024-05-09T01:39:16.160Z,8.5
2024-05-09T01:40:18.516Z,8.5
2024-05-09T01:41:16.257Z,8.78
2024-05-09T01:43:16.140Z,8.61
2024-05-09T01:44:16.160Z,8.78
2024-05-09T01:45:16.127Z,8.78
2024-05-09T01:46:16.150Z,8.78
2024-05-09T01:47:16.230Z,8.94
2024-05-09T01:49:16.285Z,8.61
2024-05-09T01:50:16.602Z,8.5
2024-05-09T01:51:16.234Z,8.39
2024-05-09T01:52:16.146Z,8.61
2024-05-09T01:53:16.186Z,8.11
2024-05-09T01:55:16.156Z,8.5
2024-05-09T01:57:16.166Z,8.5
2024-05-09T01:58:16.158Z,8.78
2024-05-09T02:00:18.980Z,8.78
2024-05-09T02:01:16.211Z,8.5
2024-05-09T02:02:16.318Z,8.39
2024-05-09T02:03:17.140Z,8.39
2024-05-09T02:05:16.376Z,8.5
2024-05-09T02:06:16.184Z,8.39
2024-05-09T02:07:16.158Z,8.5
2024-05-09T02:08:16.378Z,8.5
2024-05-09T02:10:20.104Z,8.78
2024-05-09T02:11:16.257Z,8.61
2024-05-09T02:12:16.267Z,8.61
2024-05-09T02:13:16.505Z,8.61
2024-05-09T02:14:16.199Z,8.61
2024-05-09T02:15:16.135Z,8.5
2024-05-09T02:16:16.171Z,8.78
2024-05-09T02:18:16.345Z,8.78
2024-05-09T02:20:18.884Z,8.61
2024-05-09T02:22:16.142Z,8.61
2024-05-09T02:23:16.185Z,8.61
2024-05-09T02:24:16.166Z,8.39
2024-05-09T02:25:16.175Z,8.61
2024-05-09T02:26:16.276Z,8.5
2024-05-09T02:27:16.148Z,8.39
2024-05-09T02:29:16.205Z,8.5
2024-05-09T02:30:22.653Z,8.5
2024-05-09T02:32:16.340Z,8.61
2024-05-09T02:33:16.238Z,8.39
2024-05-09T02:34:16.212Z,8.28
2024-05-09T02:35:16.223Z,8.5
2024-05-09T02:36:16.152Z,8.5
2024-05-09T02:37:16.195Z,8.39
2024-05-09T02:38:16.203Z,8.5
2024-05-09T02:39:16.171Z,8.11
2024-05-09T02:40:21.413Z,8.78
2024-05-09T02:41:16.208Z,8.61
2024-05-09T02:43:16.173Z,8.61
2024-05-09T02:44:16.182Z,8.78
2024-05-09T02:45:16.180Z,8.61
2024-05-09T02:46:16.162Z,8.61
2024-05-09T02:47:16.334Z,8.61
2024-05-09T02:49:16.214Z,8.39
2024-05-09T02:50:19.208Z,8.78
2024-05-09T02:52:16.182Z,8.5
2024-05-09T02:54:16.219Z,8.61
2024-05-09T02:56:16.248Z,8.61
2024-05-09T02:57:16.178Z,8.5
2024-05-09T02:58:16.167Z,8.61
2024-05-09T02:59:16.221Z,8.61
2024-05-09T03:00:18.944Z,8.5
2024-05-09T03:01:16.249Z,8.61
2024-05-09T03:02:16.271Z,8.5
2024-05-09T03:03:16.356Z,8.61
2024-05-09T03:04:16.290Z,8.61
2024-05-09T03:05:16.233Z,8.61
2024-05-09T03:07:17.808Z,8.39
2024-05-09T03:08:16.218Z,8.5
2024-05-09T03:09:16.203Z,8.61
2024-05-09T03:10:21.860Z,8.5
2024-05-09T03:11:16.307Z,8.5
2024-05-09T03:12:16.285Z,8.78
2024-05-09T03:13:16.503Z,8.61
2024-05-09T03:14:16.256Z,8.39
2024-05-09T03:16:16.212Z,8.39
2024-05-09T03:17:16.300Z,8.61
2024-05-09T03:19:16.401Z,8.39
2024-05-09T03:20:20.385Z,8.5
2024-05-09T03:21:16.286Z,8.5
2024-05-09T03:22:16.189Z,8.61
2024-05-09T03:23:16.239Z,8.39
2024-05-09T03:25:16.205Z,8.61
2024-05-09T03:26:16.280Z,8.61
2024-05-09T03:27:16.597Z,8.39
2024-05-09T03:28:16.206Z,8.5
2024-05-09T03:29:16.231Z,8.61
2024-05-09T03:30:25.495Z,8.5
2024-05-09T03:31:16.232Z,8.61
2024-05-09T03:32:16.339Z,8.39
2024-05-09T03:33:16.342Z,8.28
2024-05-09T03:34:16.238Z,8.5
2024-05-09T03:35:16.231Z,8.61
2024-05-09T03:36:16.230Z,8.5
2024-05-09T03:38:16.393Z,8.28
2024-05-09T03:39:16.236Z,8.5
2024-05-09T03:40:20.686Z,8.28
2024-05-09T03:42:16.220Z,8.61
2024-05-09T03:44:16.240Z,8.61
2024-05-09T03:46:16.215Z,8.5
2024-05-09T03:47:16.322Z,8.61
2024-05-09T03:48:16.476Z,8.5
2024-05-09T03:50:18.445Z,8.61
2024-05-09T03:51:16.259Z,8.5
2024-05-09T03:53:16.417Z,8.5
2024-05-09T03:54:16.278Z,8.61
2024-05-09T03:56:16.288Z,8.94
2024-05-09T03:58:16.223Z,8.61
2024-05-09T03:59:16.271Z,8.78
2024-05-09T04:00:18.055Z,8.78
2024-05-09T04:01:16.303Z,8.61
2024-05-09T04:02:16.360Z,8.78
2024-05-09T04:03:16.651Z,8.61
2024-05-09T04:04:16.248Z,8.5
2024-05-09T04:05:16.380Z,8.61
2024-05-09T04:06:16.238Z,8.61
2024-05-09T04:08:16.294Z,8.78
2024-05-09T04:09:16.245Z,8.78
2024-05-09T04:11:16.327Z,8.78
2024-05-09T04:12:16.312Z,8.61
2024-05-09T04:13:16.246Z,8.61
2024-05-09T04:14:16.240Z,8.61
2024-05-09T04:15:16.267Z,8.94
2024-05-09T04:16:16.256Z,8.61
2024-05-09T04:17:16.254Z,8.78
2024-05-09T04:18:16.361Z,8.78
2024-05-09T04:20:24.098Z,8.61
2024-05-09T04:21:16.322Z,8.5
2024-05-09T04:23:16.267Z,8.61
2024-05-09T04:24:16.254Z,8.78
2024-05-09T04:25:16.239Z,8.5
2024-05-09T04:26:16.292Z,8.78
2024-05-09T04:28:16.247Z,8.78
2024-05-09T04:30:21.470Z,8.78
2024-05-09T04:31:16.428Z,8.94
2024-05-09T04:32:16.269Z,8.61
2024-05-09T04:33:16.364Z,8.5
2024-05-09T04:34:16.414Z,8.61
2024-05-09T04:35:16.291Z,8.5
2024-05-09T04:36:16.269Z,8.61
2024-05-09T04:38:16.390Z,8.5
2024-05-09T04:39:16.259Z,8.61
2024-05-09T04:41:16.291Z,8.61
2024-05-09T04:42:16.274Z,8.61
2024-05-09T04:44:16.388Z,8.78
2024-05-09T04:45:16.313Z,8.61
2024-05-09T04:46:16.263Z,8.61
2024-05-09T04:47:16.403Z,8.5
2024-05-09T04:48:16.489Z,8.78
2024-05-09T04:49:16.385Z,8.5
2024-05-09T04:50:21.121Z,8.61
2024-05-09T04:51:16.346Z,8.94
2024-05-09T04:52:16.266Z,8.78
2024-05-09T04:53:16.490Z,8.5
2024-05-09T04:55:16.263Z,8.61
2024-05-09T04:56:16.295Z,8.5
2024-05-09T04:57:16.268Z,8.78
2024-05-09T04:58:16.274Z,8.61
2024-05-09T05:00:21.465Z,8.78
2024-05-09T05:01:16.341Z,9.06
2024-05-09T05:02:16.355Z,8.61
2024-05-09T05:04:16.353Z,8.94
2024-05-09T05:05:16.451Z,9.06
2024-05-09T05:06:16.289Z,9.22
2024-05-09T05:07:16.282Z,9.22
2024-05-09T05:08:17.094Z,8.94
2024-05-09T05:10:21.375Z,8.94
2024-05-09T05:12:16.442Z,8.78
2024-05-09T05:13:16.291Z,8.94
2024-05-09T05:15:16.280Z,8.94
2024-05-09T05:16:16.303Z,9.06
2024-05-09T05:17:16.331Z,8.94
2024-05-09T05:18:16.583Z,9.22
2024-05-09T05:19:17.614Z,8.94
2024-05-09T05:20:21.357Z,9.22
2024-05-09T05:21:16.285Z,9.06
2024-05-09T05:22:16.307Z,9.22
2024-05-09T05:24:16.297Z,9.06
2024-05-09T05:26:16.414Z,8.78
2024-05-09T05:27:16.295Z,9.22
2024-05-09T05:29:17.785Z,9.06
2024-05-09T05:30:20.785Z,9.39
2024-05-09T05:31:16.313Z,9.06
2024-05-09T05:32:16.411Z,9.39
2024-05-09T05:33:16.444Z,8.94
2024-05-09T05:34:16.296Z,9.22
2024-05-09T05:35:16.360Z,9.5
2024-05-09T05:36:16.306Z,9.67
2024-05-09T05:37:16.306Z,9.06
2024-05-09T05:38:16.397Z,9.22
2024-05-09T05:39:16.295Z,9.67
2024-05-09T05:40:24.709Z,9.67
2024-05-09T05:41:16.354Z,9.39
2024-05-09T05:42:16.305Z,9.5
2024-05-09T05:44:16.358Z,9.78
2024-05-09T05:45:16.307Z,9.39
2024-05-09T05:46:16.304Z,9.39
2024-05-09T05:49:16.463Z,9.94
2024-05-09T05:50:20.948Z,9.67
2024-05-09T05:51:16.523Z,9.39
2024-05-09T05:52:16.307Z,9.67
2024-05-09T05:53:16.407Z,9.94
2024-05-09T05:54:16.337Z,9.67
2024-05-09T05:56:16.431Z,10.39
2024-05-09T05:57:16.335Z,9.78
2024-05-09T05:58:16.306Z,10.56
2024-05-09T05:59:16.413Z,10.22
2024-05-09T06:00:21.956Z,10.11
2024-05-09T06:01:16.320Z,10.22
2024-05-09T06:02:16.445Z,10.56
2024-05-09T06:03:16.451Z,9.67
2024-05-09T06:04:16.335Z,9.78
2024-05-09T06:06:16.322Z,9.78
2024-05-09T06:07:16.363Z,9.94
2024-05-09T06:09:16.346Z,9.5
2024-05-09T06:10:17.624Z,9.94
2024-05-09T06:12:16.426Z,10.39
2024-05-09T06:14:16.367Z,10.39
2024-05-09T06:15:16.329Z,10.67
2024-05-09T06:17:16.462Z,10.22
2024-05-09T06:19:16.415Z,10.67
2024-05-09T06:20:20.077Z,10.56
2024-05-09T06:21:16.464Z,10.67
2024-05-09T06:22:16.328Z,10.67
2024-05-09T06:24:16.346Z,11.44
2024-05-09T06:25:16.337Z,11.72
2024-05-09T06:26:16.370Z,11.61
2024-05-09T06:28:16.329Z,11.44
2024-05-09T06:30:21.330Z,11.28
2024-05-09T06:31:16.354Z,11.11
2024-05-09T06:33:16.790Z,11
2024-05-09T06:35:16.406Z,11
2024-05-09T06:36:16.358Z,10.83
2024-05-09T06:37:16.344Z,10.67
2024-05-09T06:38:16.367Z,10.83
2024-05-09T06:39:16.577Z,10.83
2024-05-09T06:40:17.802Z,11.28
2024-05-09T06:41:16.369Z,11.28
2024-05-09T06:42:16.329Z,11.44
2024-05-09T06:43:17.528Z,10.83
2024-05-09T06:44:16.405Z,11.11
2024-05-09T06:45:16.349Z,11
2024-05-09T06:46:16.341Z,11
2024-05-09T06:47:16.404Z,11
2024-05-09T06:49:16.467Z,11
2024-05-09T06:51:16.408Z,11.61
2024-05-09T06:52:16.354Z,11.44
2024-05-09T06:53:16.468Z,11.28
2024-05-09T06:54:16.346Z,11.11
2024-05-09T06:55:16.391Z,11.44
2024-05-09T06:56:16.408Z,11.83
2024-05-09T06:57:16.349Z,11
2024-05-09T06:58:16.347Z,11.61
2024-05-09T06:59:16.368Z,11.44
2024-05-09T07:00:22.444Z,11.28
2024-05-09T07:01:16.374Z,11.28
2024-05-09T07:03:17.532Z,10.56
2024-05-09T07:04:16.476Z,11
2024-05-09T07:05:16.430Z,11.44
2024-05-09T07:06:16.406Z,11.72
2024-05-09T07:08:16.541Z,11.44
2024-05-09T07:09:16.367Z,11.61
2024-05-09T07:10:21.499Z,11.83
2024-05-09T07:11:16.514Z,11.83
2024-05-09T07:12:16.672Z,11.44
2024-05-09T07:13:16.358Z,10.83
2024-05-09T07:14:16.443Z,11.11
2024-05-09T07:15:16.401Z,11.11
2024-05-09T07:16:16.407Z,11
2024-05-09T07:17:16.528Z,11.28
2024-05-09T07:18:17.604Z,11.44
2024-05-09T07:20:20.192Z,11.28
2024-05-09T07:22:16.376Z,11.28
2024-05-09T07:24:16.366Z,11.44
2024-05-09T07:26:16.461Z,11.44
2024-05-09T07:27:16.382Z,11.83
2024-05-09T07:28:16.434Z,11.94
2024-05-09T07:30:20.064Z,11.83
2024-05-09T07:31:16.362Z,11.61
2024-05-09T07:32:16.435Z,11.94
2024-05-09T07:33:16.558Z,11.94
2024-05-09T07:34:16.515Z,12.11
2024-05-09T07:36:16.476Z,12.56
2024-05-09T07:37:16.416Z,12.11
2024-05-09T07:38:16.380Z,12.44
2024-05-09T07:39:16.393Z,12.44
2024-05-09T07:41:16.429Z,11.83
2024-05-09T07:42:16.358Z,12.28
2024-05-09T07:43:16.608Z,12.11
2024-05-09T07:44:16.445Z,12.44
2024-05-09T07:45:29.498Z,11.94
2024-05-09T07:46:45.614Z,12.28
2024-05-09T07:49:11.872Z,12.28
2024-05-09T07:50:33.226Z,12.56
2024-05-09T07:53:08.020Z,12.11
2024-05-09T07:54:16.497Z,11.94
2024-05-09T07:56:16.715Z,12.72
2024-05-09T07:57:16.495Z,12.5
2024-05-09T07:58:16.379Z,13.06
2024-05-09T07:59:16.424Z,12.89
2024-05-09T08:01:16.449Z,13.17
2024-05-09T08:03:16.547Z,13.06
2024-05-09T08:04:16.430Z,12.56
2024-05-09T08:05:16.485Z,12.56
2024-05-09T08:06:16.391Z,12.72
2024-05-09T08:07:16.435Z,13.5
2024-05-09T08:08:16.398Z,13.67
2024-05-09T08:09:19.589Z,13.72
2024-05-09T08:10:21.809Z,13.5
2024-05-09T08:12:16.397Z,14.56
2024-05-09T08:13:16.467Z,14.56
2024-05-09T08:14:16.393Z,12.94
2024-05-09T08:16:16.514Z,13.78
2024-05-09T08:17:16.472Z,14.56
2024-05-09T08:18:16.478Z,14.06
2024-05-09T08:19:16.456Z,14.44
2024-05-09T08:20:22.782Z,14.28
2024-05-09T08:21:16.405Z,14.56
2024-05-09T08:22:16.424Z,14.5
2024-05-09T08:23:16.423Z,14.44
2024-05-09T08:24:16.410Z,13.39
2024-05-09T08:25:16.518Z,14.61
2024-05-09T08:26:16.411Z,13.83
2024-05-09T08:27:16.413Z,14.28
2024-05-09T08:28:16.640Z,13.83
2024-05-09T08:29:16.449Z,14
2024-05-09T08:30:21.517Z,14
2024-05-09T08:31:16.531Z,13.83
2024-05-09T08:32:16.451Z,14.11
2024-05-09T08:34:16.664Z,14.28
2024-05-09T08:35:16.408Z,14.28
2024-05-09T08:36:16.433Z,14.78
2024-05-09T08:37:21.374Z,14.89
2024-05-09T08:38:16.424Z,15.06
2024-05-09T08:39:16.471Z,14.78
2024-05-09T08:40:19.802Z,14.78
2024-05-09T08:42:16.437Z,14.89
2024-05-09T08:43:16.551Z,15.06
2024-05-09T08:44:16.454Z,14.61
2024-05-09T08:45:16.439Z,15.28
2024-05-09T08:46:16.480Z,15.28
2024-05-09T08:47:16.490Z,15.06
2024-05-09T08:48:16.824Z,14.11
2024-05-09T08:50:23.869Z,14.78
2024-05-09T08:51:16.455Z,14.78
2024-05-09T08:53:16.436Z,14.28
2024-05-09T08:54:16.435Z,14.78
2024-05-09T08:55:16.464Z,13.67
2024-05-09T08:57:16.452Z,14.61
2024-05-09T08:58:16.869Z,15.17
2024-05-09T09:00:21.448Z,15.28
2024-05-09T09:01:16.508Z,14.89
2024-05-09T09:02:16.602Z,15.06
2024-05-09T09:03:16.497Z,15.06
2024-05-09T09:04:16.671Z,14.89
2024-05-09T09:05:16.556Z,15.06
2024-05-09T09:06:16.471Z,14.78
2024-05-09T09:07:16.529Z,15.28
2024-05-09T09:08:16.444Z,15.44
2024-05-09T09:09:16.467Z,15.06
2024-05-09T09:10:24.862Z,15.28
2024-05-09T09:11:16.475Z,15.44
2024-05-09T09:13:16.593Z,16.22
2024-05-09T09:14:16.471Z,16.22
2024-05-09T09:15:16.455Z,16.39
2024-05-09T09:16:16.510Z,15.89
2024-05-09T09:17:16.548Z,15.89
2024-05-09T09:18:16.589Z,15.44
2024-05-09T09:19:16.668Z,15.28
2024-05-09T09:20:19.330Z,15.89
2024-05-09T09:21:16.501Z,16.06
2024-05-09T09:23:16.473Z,15.44
2024-05-09T09:25:16.506Z,15.78
2024-05-09T09:26:16.471Z,15.28
2024-05-09T09:27:16.473Z,15.89
2024-05-09T09:29:16.480Z,16.89
2024-05-09T09:30:26.842Z,16.22
2024-05-09T09:31:16.477Z,16.39
2024-05-09T09:32:16.535Z,17.17
2024-05-09T09:33:16.592Z,16.72
2024-05-09T09:34:16.576Z,16.22
2024-05-09T09:35:16.643Z,16.06
2024-05-09T09:36:16.472Z,16.06
2024-05-09T09:37:16.502Z,16.06
2024-05-09T09:39:16.483Z,16.72
2024-05-09T09:40:18.306Z,16.89
2024-05-09T09:41:16.472Z,16.89
2024-05-09T09:42:16.474Z,16.72
2024-05-09T09:43:16.477Z,16.89
2024-05-09T09:44:16.490Z,17
2024-05-09T09:45:16.495Z,16.56
2024-05-09T09:46:16.614Z,16.56
2024-05-09T09:47:16.592Z,17.67
2024-05-09T09:48:16.644Z,17.33
2024-05-09T09:49:16.585Z,17.33
2024-05-09T09:50:17.061Z,17.67
2024-05-09T09:51:16.517Z,17.33
2024-05-09T09:53:16.496Z,17.67
2024-05-09T09:55:16.675Z,17
2024-05-09T09:56:16.516Z,16.56
2024-05-09T09:58:16.605Z,18.94
2024-05-09T09:59:16.511Z,19.06
2024-05-09T10:01:16.679Z,16.89
2024-05-09T10:03:16.571Z,17
2024-05-09T10:05:16.590Z,17.5
2024-05-09T10:06:16.496Z,17.94
2024-05-09T10:07:16.557Z,18.44
2024-05-09T10:08:16.519Z,18.28
2024-05-09T10:09:16.495Z,17.67
2024-05-09T10:10:20.263Z,17.33
2024-05-09T10:11:16.534Z,17.94
2024-05-09T10:13:16.585Z,17.67
2024-05-09T10:14:16.506Z,17
2024-05-09T10:16:16.521Z,16.72
2024-05-09T10:17:16.532Z,17.67
2024-05-09T10:18:16.841Z,17.67
2024-05-09T10:20:21.389Z,16.72
2024-05-09T10:21:16.503Z,17.5
2024-05-09T10:22:16.556Z,17.17
2024-05-09T10:23:16.539Z,16.72
2024-05-09T10:25:16.629Z,17.5
2024-05-09T10:26:16.519Z,17.17
2024-05-09T10:27:16.522Z,16.89
2024-05-09T10:28:16.599Z,17.5
2024-05-09T10:29:16.516Z,17
2024-05-09T10:30:21.477Z,17.5
2024-05-09T10:31:16.671Z,17.67
2024-05-09T10:32:16.549Z,17.67
2024-05-09T10:33:16.650Z,17
2024-05-09T10:35:16.541Z,17.17
2024-05-09T10:36:16.512Z,17.22
2024-05-09T10:37:16.547Z,17
2024-05-09T10:38:16.514Z,16.44
2024-05-09T10:40:20.249Z,16.89
2024-05-09T10:41:16.519Z,15.94
2024-05-09T10:42:16.525Z,16.89
2024-05-09T10:43:16.783Z,16.89
2024-05-09T10:44:16.566Z,17.5
2024-05-09T10:45:16.521Z,16.89
2024-05-09T10:46:16.845Z,16.44
2024-05-09T10:47:16.561Z,16.44
2024-05-09T10:48:16.602Z,16.28
2024-05-09T10:49:16.643Z,16.72
2024-05-09T10:50:21.941Z,16.11
2024-05-09T10:51:16.542Z,16.56
2024-05-09T10:52:16.616Z,16.89
2024-05-09T10:53:16.540Z,16.56
2024-05-09T10:54:16.538Z,16.89
2024-05-09T10:55:16.592Z,16.56
2024-05-09T10:56:16.981Z,16.44
2024-05-09T10:57:16.543Z,16.72
2024-05-09T10:58:16.582Z,16.28
2024-05-09T10:59:16.543Z,16.11
2024-05-09T11:00:23.102Z,16.56
2024-05-09T11:01:16.660Z,16.72
2024-05-09T11:02:16.663Z,16.72
2024-05-09T11:03:16.626Z,16.72
2024-05-09T11:05:16.618Z,17.5
2024-05-09T11:06:16.599Z,17.83
2024-05-09T11:08:16.561Z,16.28
2024-05-09T11:09:16.559Z,16.11
2024-05-09T11:10:20.661Z,16.28
2024-05-09T11:11:16.674Z,16.89
2024-05-09T11:12:16.565Z,16.44
2024-05-09T11:13:16.610Z,16.56
2024-05-09T11:14:16.567Z,17.22
2024-05-09T11:15:16.579Z,17.39
2024-05-09T11:16:16.897Z,17.5
2024-05-09T11:17:16.574Z,17.67
2024-05-09T11:18:16.808Z,17.39
2024-05-09T11:19:16.715Z,17.67
2024-05-09T11:21:16.582Z,17.06
2024-05-09T11:23:16.589Z,18.83
2024-05-09T11:25:16.615Z,18.83
2024-05-09T11:26:16.568Z,18.83
2024-05-09T11:27:16.609Z,18.67
2024-05-09T11:28:16.801Z,17.83
2024-05-09T11:30:21.265Z,18.67
2024-05-09T11:31:16.667Z,17.83
2024-05-09T11:32:16.689Z,17.83
2024-05-09T11:33:16.642Z,17.83
2024-05-09T11:34:16.789Z,18
2024-05-09T11:35:16.580Z,18.94
2024-05-09T11:37:16.664Z,18
2024-05-09T11:38:16.593Z,18
2024-05-09T11:40:20.711Z,16.72
2024-05-09T11:42:16.587Z,17.67
2024-05-09T11:43:16.944Z,17.39
2024-05-09T11:44:16.584Z,16.89
2024-05-09T11:45:16.644Z,18.17
2024-05-09T11:46:16.745Z,18.33
2024-05-09T11:47:16.624Z,18.67
2024-05-09T11:48:16.719Z,17.5
2024-05-09T11:49:16.906Z,18.17
2024-05-09T11:51:16.593Z,19.83
2024-05-09T11:53:16.612Z,19.61
2024-05-09T11:55:16.811Z,18.94
2024-05-09T11:56:16.598Z,19.44
2024-05-09T11:57:16.599Z,20.11
2024-05-09T11:58:16.665Z,19.94
2024-05-09T12:00:20.679Z,21.89
2024-05-09T12:01:16.693Z,22.22
2024-05-09T12:02:16.885Z,18.67
2024-05-09T12:03:16.692Z,18.94
2024-05-09T12:04:16.840Z,19.33
2024-05-09T12:06:16.743Z,19.83
2024-05-09T12:08:16.702Z,18.94
2024-05-09T12:09:16.601Z,19.33
2024-05-09T12:10:19.513Z,18.94
2024-05-09T12:11:16.907Z,18.83
2024-05-09T12:12:16.593Z,18.67
2024-05-09T12:13:16.832Z,18.67
2024-05-09T12:14:16.612Z,19.11
2024-05-09T12:15:16.893Z,18.83
2024-05-09T12:16:16.918Z,18.5
2024-05-09T12:17:16.716Z,18.33
2024-05-09T12:19:16.624Z,18.33
2024-05-09T12:20:20.904Z,18.67
2024-05-09T12:21:16.600Z,18.67
2024-05-09T12:22:16.740Z,18
2024-05-09T12:23:16.595Z,18.17
2024-05-09T12:24:18.407Z,17.83
2024-05-09T12:25:16.787Z,16.89
2024-05-09T12:26:16.622Z,16.72
2024-05-09T12:27:16.653Z,17.39
2024-05-09T12:29:16.606Z,17.83
2024-05-09T12:31:16.661Z,17.67
2024-05-09T12:32:16.722Z,17.5
2024-05-09T12:33:16.719Z,16.72
2024-05-09T12:34:16.721Z,16.56
2024-05-09T12:35:16.633Z,16.44
2024-05-09T12:36:16.633Z,16.89
2024-05-09T12:37:16.787Z,16.72
2024-05-09T12:38:16.628Z,16.72
2024-05-09T12:39:16.621Z,17.06
2024-05-09T12:40:22.434Z,16.72
2024-05-09T12:41:16.667Z,15.83
2024-05-09T12:42:22.642Z,15.94
2024-05-09T12:43:16.659Z,16.28
2024-05-09T12:45:16.683Z,15.67
2024-05-09T12:46:16.704Z,15.83
2024-05-09T12:47:16.818Z,16.56
2024-05-09T12:48:16.870Z,16.11
2024-05-09T12:49:18.675Z,16.44
2024-05-09T12:50:22.202Z,16.44
2024-05-09T12:52:16.813Z,15.94
2024-05-09T12:53:16.716Z,16.28
2024-05-09T12:54:16.637Z,16.89
2024-05-09T12:55:16.851Z,16.44
2024-05-09T12:57:16.632Z,16.89
2024-05-09T12:58:17.086Z,16.56
2024-05-09T12:59:16.623Z,16.56
2024-05-09T13:00:20.640Z,16.28
2024-05-09T13:01:16.734Z,16.28
2024-05-09T13:02:16.963Z,15.83
2024-05-09T13:03:16.816Z,16.11
2024-05-09T13:05:16.856Z,17.06
2024-05-09T13:07:16.681Z,17.39
2024-05-09T13:08:16.628Z,18
2024-05-09T13:09:16.638Z,18.33
2024-05-09T13:11:16.825Z,17.39
2024-05-09T13:12:16.650Z,17.06
2024-05-09T13:14:16.630Z,18.5
2024-05-09T13:15:16.635Z,18.5
2024-05-09T13:16:16.867Z,17.83
2024-05-09T13:17:16.825Z,18.17
2024-05-09T13:18:16.745Z,18.5
2024-05-09T13:20:22.572Z,18.33
2024-05-09T13:22:16.793Z,18.33
2024-05-09T13:24:16.639Z,17.67
2024-05-09T13:25:16.662Z,17.83
2024-05-09T13:26:16.651Z,17.83
2024-05-09T13:27:16.667Z,18.67
2024-05-09T13:28:16.898Z,18.83
2024-05-09T13:29:16.644Z,18.5
2024-05-09T13:30:21.697Z,19.11
2024-05-09T13:32:16.722Z,19.11
2024-05-09T13:33:16.826Z,18.94
2024-05-09T13:34:16.801Z,18.67
2024-05-09T13:35:16.793Z,18.67
2024-05-09T13:36:16.688Z,19.61
2024-05-09T13:37:16.813Z,19.33
2024-05-09T13:38:16.702Z,19.44
2024-05-09T13:40:19.663Z,19.33
2024-05-09T13:42:16.724Z,18.5
2024-05-09T13:44:16.849Z,19.94
2024-05-09T13:45:16.713Z,19.61
2024-05-09T13:46:16.804Z,18.5
2024-05-09T13:47:16.697Z,18.67
2024-05-09T13:48:16.734Z,18.83
2024-05-09T13:50:23.462Z,19.61
2024-05-09T13:51:16.839Z,19.83
2024-05-09T13:53:16.664Z,19.61
2024-05-09T13:54:18.691Z,19.11
2024-05-09T13:55:16.722Z,20.11
2024-05-09T13:56:16.660Z,20.22
2024-05-09T13:57:16.694Z,19.83
2024-05-09T13:58:16.791Z,20.17
2024-05-09T14:00:22.873Z,20.5
2024-05-09T14:02:16.879Z,19.72
2024-05-09T14:03:17.585Z,20.56
2024-05-09T14:04:16.851Z,20.39
2024-05-09T14:05:16.962Z,20
2024-05-09T14:06:16.673Z,19.33
2024-05-09T14:08:16.675Z,19.5
2024-05-09T14:09:16.677Z,19.33
2024-05-09T14:10:20.002Z,19.11
2024-05-09T14:11:16.720Z,20
2024-05-09T14:13:16.979Z,20
2024-05-09T14:14:16.706Z,20
2024-05-09T14:16:16.773Z,20.28
2024-05-09T14:17:16.762Z,21.22
2024-05-09T14:18:16.752Z,21.56
2024-05-09T14:19:16.745Z,21.06
2024-05-09T14:21:16.710Z,20.56
2024-05-09T14:22:16.720Z,20.39
2024-05-09T14:23:16.725Z,21.06
2024-05-09T14:24:16.755Z,21.22
2024-05-09T14:26:16.695Z,21.22
2024-05-09T14:27:16.691Z,21.72
2024-05-09T14:28:16.722Z,22.06
2024-05-09T14:29:16.697Z,22.06
2024-05-09T14:30:22.444Z,21.56
2024-05-09T14:31:16.788Z,21.22
2024-05-09T14:32:16.706Z,21.39
2024-05-09T14:34:16.919Z,19.11
2024-05-09T14:38:16.700Z,18
2024-05-09T14:39:16.720Z,18.33
2024-05-09T14:40:25.860Z,18.67
2024-05-09T14:41:16.722Z,17.72
2024-05-09T14:42:16.733Z,17.72
2024-05-09T14:43:16.732Z,17.56
2024-05-09T14:45:16.723Z,17.39
2024-05-09T14:47:16.758Z,17.22
2024-05-09T14:49:16.760Z,17.56
2024-05-09T14:50:19.521Z,17.22
2024-05-09T14:51:16.702Z,17.22
2024-05-09T14:52:16.733Z,18.33
2024-05-09T14:53:16.716Z,20
2024-05-09T14:54:16.713Z,20.56
2024-05-09T14:55:16.778Z,20.89
2024-05-09T14:56:16.721Z,20.89
2024-05-09T14:58:16.846Z,21.22
2024-05-09T14:59:16.768Z,20.78
2024-05-09T15:00:20.757Z,20.56
2024-05-09T15:01:16.805Z,19.33
2024-05-09T15:03:16.755Z,20.28
2024-05-09T15:04:16.895Z,20.78
2024-05-09T15:05:16.757Z,21.56
2024-05-09T15:06:16.765Z,20.39
2024-05-09T15:07:16.785Z,21.56
2024-05-09T15:09:16.731Z,21.22
2024-05-09T15:10:23.325Z,21.39
2024-05-09T15:11:16.858Z,21.72
2024-05-09T15:12:16.727Z,21.39
2024-05-09T15:13:17.222Z,20.89
2024-05-09T15:14:16.735Z,20.78
2024-05-09T15:15:16.731Z,21.06
2024-05-09T15:16:16.789Z,20.78
2024-05-09T15:17:16.723Z,20.11
2024-05-09T15:18:17.033Z,20
2024-05-09T15:19:17.054Z,20.39
2024-05-09T15:20:17.502Z,20.39
2024-05-09T15:22:16.776Z,20.39
2024-05-09T15:23:16.739Z,20.56
2024-05-09T15:24:16.728Z,20.78
2024-05-09T15:25:16.827Z,20.11
2024-05-09T15:26:16.740Z,20.39
2024-05-09T15:27:16.770Z,20.39
2024-05-09T15:29:16.749Z,21.22
2024-05-09T15:30:20.774Z,21.56
2024-05-09T15:31:16.787Z,21.39
2024-05-09T15:32:16.746Z,21.22
2024-05-09T15:33:16.773Z,21.39
2024-05-09T15:34:16.779Z,20.56
2024-05-09T15:35:16.747Z,20.11
2024-05-09T15:36:16.754Z,20.11
2024-05-09T15:37:16.801Z,20
2024-05-09T15:38:16.753Z,20.11
2024-05-09T15:39:16.760Z,20.39
2024-05-09T15:41:16.769Z,21.22
2024-05-09T15:42:16.752Z,21.06
2024-05-09T15:43:16.958Z,21.22
2024-05-09T15:44:16.793Z,20.89
2024-05-09T15:46:16.829Z,18.22
2024-05-09T15:48:16.821Z,17.39
2024-05-09T15:49:16.955Z,17.22
2024-05-09T15:50:20.181Z,17.11
2024-05-09T15:51:16.769Z,19.11
2024-05-09T15:52:16.853Z,20.11
2024-05-09T15:54:16.759Z,19.5
2024-05-09T15:55:16.845Z,19.83
2024-05-09T15:56:16.791Z,18.83
2024-05-09T15:57:16.774Z,19
2024-05-09T15:58:16.879Z,19.11
2024-05-09T15:59:16.804Z,19.11
2024-05-09T16:00:21.811Z,19.61
2024-05-09T16:01:16.819Z,20.56
2024-05-09T16:02:17.055Z,21.06